Tutti
Westmead Children's Hospital Airport (New South Wales) YXWM Meteo
There is no TAF data available at YXWM. Showing TAF data for YSBK (8 mi S).
Previsione area Terminal BWU (nessun dato per YXWM)
| Here is the undecoded forecast: 2026/08/31 11:17 YSBK 311117Z 3112/0100 VRB03KT CAVOK PROB30 3117/3122 0300 FG BKN001 RMK T 12 11 09 09 Q 1029 1028 1026 1026 |
There is no METAR data available at YXWM. Showing METAR data for YSBK (8 mi S).
Storico METAR BWU recente (nessun dato per YXWM)
| Date | Time (AEST) | Flight Rules | Wind Dir. | Speed | Type | Height AGL (ft) | Visibility | Temp (°C) | Temp (°F) | Dew Point (°C) | Dew Point (°F) | Rel. Humid. | Pressure | Density Altitude | Remarks |
|---|---|---|---|---|---|---|---|---|---|---|---|---|---|---|---|
| 01-set | 02:00 | VFR | Calm | 10000 meters | 9° | 48° | 9° | 48° | 100% | 1027 mb | -1.098 ft | ||||
| 01-set | 01:00 | VFR | Calm | 10000 meters | 10° | 50° | 9° | 48° | 93% | 1028 mb | -1.008 ft | ||||
| 01-set | 00:00 | VFR | Calm | 10000 meters | 10° | 50° | 9° | 48° | 93% | 1028 mb | -1.008 ft | ||||
| 31-ago | 23:00 | VFR | Calm | 10000 meters | 11° | 51° | 10° | 50° | 94% | 1029 mb | -917 ft | ||||
| 31-ago | 22:00 | VFR | Calm | 10000 meters | 12° | 53° | 10° | 50° | 88% | 1029 mb | -797 ft | ||||
| 31-ago | 21:00 | VFR | Calm | 10000 meters | 13° | 55° | 11° | 51° | 88% | 1029 mb | -677 ft | ||||
| 31-ago | 20:00 | VFR | 110° | 1 kt | 10000 meters | 15° | 59° | 11° | 51° | 77% | 1029 mb | -437 ft | |||
| 31-ago | 19:00 | VFR | 70° | 4 kt | 10000 meters | 17° | 62° | 11° | 51° | 68% | 1029 mb | -197 ft | |||
| 31-ago | 18:00 | VFR | 90° | 7 kt | 10000 meters | 18° | 64° | 11° | 51° | 64% | 1028 mb | -48 ft | |||
| 31-ago | 17:00 | VFR | 100° | 8 kt | 10000 meters | 20° | 68° | 9° | 48° | 49% | 1028 mb | 192 ft | |||
| 31-ago | 16:00 | VFR | 110° | 10 kt | 10000 meters | 22° | 71° | 10° | 50° | 46% | 1028 mb | 432 ft | |||
| 31-ago | 15:00 | VFR | 90° | 7 kt | 10000 meters | 23° | 73° | 10° | 50° | 44% | 1028 mb | 552 ft | |||
| 31-ago | 14:00 | VFR | 100° | 5 kt | 10000 meters | 23° | 73° | 7° | 44° | 36% | 1028 mb | 552 ft | |||
| 31-ago | 13:00 | VFR | 10° | 3 kt | 10000 meters | 23° | 73° | 9° | 48° | 41% | 1029 mb | 523 ft | |||
| 31-ago | 12:00 | VFR | 30° | 5 kt | 10000 meters | 21° | 69° | 9° | 48° | 46% | 1030 mb | 253 ft | |||
| 31-ago | 11:00 | VFR | 310° | 3 kt | 10000 meters | 19° | 66° | 10° | 50° | 56% | 1031 mb | -16 ft | |||
| 31-ago | 10:00 | VFR | 270° | 2 kt | 10000 meters | 17° | 62° | 10° | 50° | 63% | 1031 mb | -256 ft | |||
| 31-ago | 09:00 | VFR | 320° | 5 kt | 10000 meters | 14° | 57° | 8° | 46° | 67% | 1031 mb | -616 ft | |||
| 31-ago | 08:00 | VFR | 350° | 4 kt | 10000 meters | 11° | 51° | 8° | 46° | 82% | 1031 mb | -976 ft | |||
| 31-ago | 07:00 | VFR | Calm | 10000 meters | 8° | 46° | 8° | 46° | 100% | 1031 mb | -1.336 ft | ||||
| 31-ago | 06:00 | VFR | Calm | 10000 meters | 7° | 44° | 6° | 42° | 93% | 1030 mb | -1.427 ft | ||||
| 31-ago | 05:00 | VFR | Calm | 10000 meters | 7° | 44° | 7° | 44° | 100% | 1030 mb | -1.427 ft | ||||
| 31-ago | 04:00 | VFR | Calm | 10000 meters | 8° | 46° | 7° | 44° | 93% | 1030 mb | -1.307 ft | ||||
| 31-ago | 03:00 | VFR | Calm | 10000 meters | 8° | 46° | 7° | 44° | 93% | 1030 mb | -1.307 ft |
Accedi
| Il tuo browser non è supportato. fai l'upgrade del tuo browser |
